createdAt,value
2022-08-31T00:01:51.596Z,6.47
2022-08-31T00:04:55.723Z,7.78
2022-08-31T00:07:58.098Z,6.13
2022-08-31T00:11:00.985Z,7.60
2022-08-31T00:14:13.365Z,7.28
2022-08-31T00:17:16.508Z,6.13
2022-08-31T00:20:32.431Z,8.20
2022-08-31T00:23:36.613Z,6.93
2022-08-31T00:26:38.762Z,6.55
2022-08-31T00:29:41.286Z,6.28
2022-08-31T00:32:43.343Z,6.90
2022-08-31T00:35:45.843Z,6.13
2022-08-31T00:38:49.590Z,5.55
2022-08-31T00:41:51.770Z,7.03
2022-08-31T00:44:54.107Z,6.68
2022-08-31T00:47:56.372Z,6.50
2022-08-31T00:50:59.222Z,6.28
2022-08-31T00:54:01.526Z,7.13
2022-08-31T00:57:05.866Z,6.70
2022-08-31T01:00:12.682Z,6.22
2022-08-31T01:03:17.358Z,5.72
2022-08-31T01:06:20.687Z,6.10
2022-08-31T01:09:25.281Z,6.88
2022-08-31T01:12:28.221Z,6.60
2022-08-31T01:15:31.812Z,6.90
2022-08-31T01:18:35.022Z,5.70
2022-08-31T01:21:57.238Z,6.28
2022-08-31T01:25:00.696Z,5.78
2022-08-31T01:28:07.407Z,6.18
2022-08-31T01:31:14.945Z,4.95
2022-08-31T01:34:17.227Z,5.63
2022-08-31T01:37:19.768Z,4.82
2022-08-31T01:40:38.513Z,5.13
2022-08-31T01:43:40.698Z,5.15
2022-08-31T01:46:43.606Z,4.85
2022-08-31T01:49:45.771Z,5.75
2022-08-31T01:52:47.873Z,5.07
2022-08-31T01:55:50.472Z,5.15
2022-08-31T01:58:53.483Z,5.47
2022-08-31T02:02:15.892Z,5.13
2022-08-31T02:05:18.296Z,4.80
2022-08-31T02:08:20.576Z,4.88
2022-08-31T02:11:22.852Z,6.03
2022-08-31T02:14:26.080Z,6.15
2022-08-31T02:17:28.528Z,4.57
2022-08-31T02:20:31.168Z,5.13
2022-08-31T02:23:33.483Z,6.78
2022-08-31T02:26:35.701Z,4.75
2022-08-31T02:29:38.655Z,5.03
2022-08-31T02:32:40.811Z,4.82
2022-08-31T02:35:45.226Z,4.68
2022-08-31T02:38:50.710Z,4.80
2022-08-31T02:41:54.367Z,4.93
2022-08-31T02:44:57.377Z,4.70
2022-08-31T02:47:59.564Z,5.07
2022-08-31T02:51:11.618Z,6.15
2022-08-31T02:54:14.188Z,4.95
2022-08-31T02:57:21.000Z,4.35
2022-08-31T03:00:24.603Z,4.90
2022-08-31T03:03:26.759Z,4.63
2022-08-31T03:06:30.029Z,5.43
2022-08-31T03:09:34.125Z,5.47
2022-08-31T03:12:38.004Z,6.57
2022-08-31T03:15:41.642Z,6.40
2022-08-31T03:18:43.914Z,4.90
2022-08-31T03:21:47.261Z,6.00
2022-08-31T03:24:49.919Z,4.85
2022-08-31T03:27:52.041Z,5.85
2022-08-31T03:30:54.410Z,7.65
2022-08-31T03:33:57.575Z,5.68
2022-08-31T03:36:59.740Z,5.55
2022-08-31T03:40:02.872Z,5.30
2022-08-31T03:43:11.598Z,5.95
2022-08-31T03:46:15.658Z,7.65
2022-08-31T03:49:19.015Z,5.25
2022-08-31T03:52:38.662Z,6.70
2022-08-31T03:55:48.122Z,5.93
2022-08-31T03:58:50.947Z,6.70
2022-08-31T04:02:22.574Z,5.97
2022-08-31T04:05:45.126Z,5.82
2022-08-31T04:09:13.600Z,6.07
2022-08-31T04:12:48.071Z,5.30
2022-08-31T04:16:23.088Z,5.93
2022-08-31T04:19:57.188Z,6.00
2022-08-31T04:23:11.766Z,6.70
2022-08-31T04:26:37.112Z,4.68
2022-08-31T04:29:40.849Z,6.60
2022-08-31T04:32:42.907Z,6.47
2022-08-31T04:35:45.035Z,6.47
2022-08-31T04:38:49.410Z,6.30
2022-08-31T04:41:51.837Z,6.78
2022-08-31T04:44:54.967Z,6.63
2022-08-31T04:47:57.149Z,6.15
2022-08-31T04:51:06.690Z,7.05
2022-08-31T04:54:11.819Z,6.22
2022-08-31T04:57:13.975Z,7.07
2022-08-31T05:00:18.102Z,6.82
2022-08-31T05:03:41.110Z,6.78
2022-08-31T05:06:46.360Z,6.88
2022-08-31T05:09:49.738Z,6.32
2022-08-31T05:12:52.229Z,6.97
2022-08-31T05:15:58.303Z,6.95
2022-08-31T05:19:01.482Z,6.07
2022-08-31T05:22:03.961Z,6.72
2022-08-31T05:25:09.526Z,7.07
2022-08-31T05:28:11.653Z,7.22
2022-08-31T05:31:14.570Z,7.03
2022-08-31T05:34:21.973Z,7.47
2022-08-31T05:37:24.374Z,7.10
2022-08-31T05:40:28.222Z,7.38
2022-08-31T05:43:31.161Z,7.43
2022-08-31T05:46:34.756Z,8.13
2022-08-31T05:49:39.198Z,6.72
2022-08-31T05:52:43.685Z,7.50
2022-08-31T05:55:46.206Z,8.10
2022-08-31T05:58:49.261Z,6.68
2022-08-31T06:01:52.249Z,7.35
2022-08-31T06:04:59.226Z,8.05
2022-08-31T06:08:01.622Z,7.53
2022-08-31T06:11:05.966Z,8.98
2022-08-31T06:14:09.909Z,7.60
2022-08-31T06:17:13.520Z,7.18
2022-08-31T06:20:18.165Z,8.50
2022-08-31T06:23:22.552Z,8.00
2022-08-31T06:26:29.208Z,8.65
2022-08-31T06:29:32.331Z,6.47
2022-08-31T06:32:36.083Z,8.88
2022-08-31T06:35:40.456Z,9.02
2022-08-31T06:39:09.245Z,7.53
2022-08-31T06:42:20.106Z,8.45
2022-08-31T06:45:31.548Z,8.50
2022-08-31T06:48:56.406Z,8.15
2022-08-31T06:52:00.984Z,8.52
2022-08-31T06:55:04.516Z,7.78
2022-08-31T06:58:25.288Z,8.77
2022-08-31T07:01:49.365Z,7.75
2022-08-31T07:04:58.801Z,9.25
2022-08-31T07:08:00.822Z,9.40
2022-08-31T07:11:03.605Z,8.10
2022-08-31T07:14:09.961Z,7.70
2022-08-31T07:17:13.629Z,6.93
2022-08-31T07:20:15.805Z,7.95
2022-08-31T07:23:18.485Z,8.65
2022-08-31T07:26:39.262Z,7.57
2022-08-31T07:32:50.391Z,6.90
2022-08-31T07:35:58.960Z,6.68
2022-08-31T07:39:39.952Z,7.80
2022-08-31T07:42:44.574Z,8.02
2022-08-31T07:45:46.857Z,8.70
2022-08-31T07:48:55.026Z,7.32
2022-08-31T07:52:00.196Z,8.45
2022-08-31T07:55:28.327Z,7.57
2022-08-31T07:58:35.350Z,8.85
2022-08-31T08:01:40.517Z,7.72
2022-08-31T08:04:44.413Z,8.75
2022-08-31T08:08:23.000Z,8.82
2022-08-31T08:11:55.340Z,8.23
2022-08-31T08:15:16.394Z,9.25
2022-08-31T08:18:18.549Z,8.65
2022-08-31T08:21:25.088Z,8.82
2022-08-31T08:24:29.463Z,8.75
2022-08-31T08:27:41.196Z,8.52
2022-08-31T08:31:01.663Z,8.45
2022-08-31T08:34:06.921Z,8.70
2022-08-31T08:37:11.471Z,8.77
2022-08-31T08:40:42.823Z,8.50
2022-08-31T08:43:58.845Z,8.07
2022-08-31T08:47:07.974Z,5.53
2022-08-31T08:50:19.176Z,6.10
2022-08-31T08:53:27.512Z,5.13
2022-08-31T08:56:49.838Z,4.63
2022-08-31T08:59:58.629Z,5.53
2022-08-31T09:03:12.597Z,4.68
2022-08-31T09:07:11.923Z,4.93
2022-08-31T09:10:26.196Z,5.65
2022-08-31T09:13:56.430Z,7.28
2022-08-31T09:17:02.369Z,4.88
2022-08-31T09:20:05.948Z,4.78
2022-08-31T09:23:09.294Z,5.60
2022-08-31T09:26:16.935Z,5.35
2022-08-31T09:29:45.122Z,4.65
2022-08-31T09:32:57.285Z,4.60
2022-08-31T09:36:22.551Z,6.22
2022-08-31T09:39:33.007Z,5.00
2022-08-31T09:42:39.393Z,3.63
2022-08-31T09:46:25.977Z,3.53
2022-08-31T09:49:39.190Z,3.22
2022-08-31T09:52:59.659Z,3.85
2022-08-31T09:56:18.918Z,3.15
2022-08-31T09:59:44.608Z,3.28
2022-08-31T10:02:46.830Z,2.22
2022-08-31T10:05:51.978Z,3.20
2022-08-31T10:09:00.642Z,3.17
2022-08-31T10:12:09.866Z,3.40
2022-08-31T10:15:21.636Z,2.60
2022-08-31T10:18:39.789Z,2.78
2022-08-31T10:21:53.568Z,2.53
2022-08-31T10:25:12.881Z,3.00
2022-08-31T10:28:43.936Z,2.50
2022-08-31T10:31:55.187Z,3.95
2022-08-31T10:35:19.715Z,2.90
2022-08-31T10:38:38.662Z,3.72
2022-08-31T10:41:45.246Z,3.47
2022-08-31T10:44:58.987Z,3.55
2022-08-31T10:48:05.129Z,2.63
2022-08-31T10:51:19.594Z,3.40
2022-08-31T10:54:40.474Z,2.67
2022-08-31T10:57:58.780Z,2.08
2022-08-31T11:01:08.754Z,2.28
2022-08-31T11:04:22.960Z,3.00
2022-08-31T11:07:36.957Z,3.20
2022-08-31T11:10:54.553Z,2.28
2022-08-31T11:14:09.992Z,2.90
2022-08-31T11:17:47.551Z,2.10
2022-08-31T11:21:21.701Z,2.22
2022-08-31T11:24:56.267Z,2.10
2022-08-31T11:28:07.261Z,2.30
2022-08-31T11:31:23.866Z,2.40
2022-08-31T11:34:29.007Z,1.88
2022-08-31T11:37:51.061Z,2.28
2022-08-31T11:41:00.863Z,2.17
2022-08-31T11:44:06.226Z,2.50
2022-08-31T11:47:28.957Z,2.50
2022-08-31T11:50:37.269Z,2.20
2022-08-31T11:56:47.726Z,2.95
2022-08-31T11:59:51.001Z,2.00
2022-08-31T12:03:09.661Z,2.17
2022-08-31T12:06:37.389Z,2.13
2022-08-31T12:09:42.445Z,1.67
2022-08-31T12:13:07.856Z,2.03
2022-08-31T12:16:23.318Z,2.25
2022-08-31T12:19:54.923Z,2.30
2022-08-31T12:23:30.941Z,2.72
2022-08-31T12:26:59.691Z,2.15
2022-08-31T12:30:20.381Z,2.75
2022-08-31T12:33:26.936Z,2.20
2022-08-31T12:36:32.733Z,2.75
2022-08-31T12:39:34.939Z,2.30
2022-08-31T12:42:46.333Z,2.72
2022-08-31T12:46:12.730Z,2.40
2022-08-31T12:49:37.769Z,2.33
2022-08-31T12:53:17.272Z,1.90
2022-08-31T12:56:33.571Z,2.22
2022-08-31T13:00:01.271Z,1.98
2022-08-31T13:03:07.172Z,2.75
2022-08-31T13:06:13.810Z,3.22
2022-08-31T13:09:30.327Z,2.05
2022-08-31T13:12:32.698Z,2.25
2022-08-31T13:15:42.307Z,2.75
2022-08-31T13:18:46.513Z,2.65
2022-08-31T13:22:07.995Z,3.15
2022-08-31T13:25:36.200Z,2.83
2022-08-31T13:28:38.471Z,2.78
2022-08-31T13:31:50.148Z,2.67
2022-08-31T13:34:55.081Z,2.08
2022-08-31T13:38:05.181Z,2.38
2022-08-31T13:41:28.184Z,2.47
2022-08-31T13:44:33.962Z,1.52
2022-08-31T13:47:56.821Z,2.65
2022-08-31T13:51:13.202Z,2.30
2022-08-31T13:54:27.643Z,2.08
2022-08-31T13:57:34.895Z,2.22
2022-08-31T14:00:44.168Z,2.22
2022-08-31T14:03:59.228Z,2.40
2022-08-31T14:07:02.160Z,2.20
2022-08-31T14:10:19.461Z,1.85
2022-08-31T14:13:25.384Z,2.83
2022-08-31T14:16:33.274Z,2.35
2022-08-31T14:19:40.142Z,2.45
2022-08-31T14:22:45.856Z,2.45
2022-08-31T14:25:48.006Z,2.25
2022-08-31T14:28:53.663Z,2.05
2022-08-31T14:31:58.043Z,2.85
2022-08-31T14:35:02.416Z,2.10
2022-08-31T14:38:04.589Z,2.53
2022-08-31T14:41:09.267Z,3.03
2022-08-31T14:44:13.565Z,2.70
2022-08-31T14:47:15.618Z,2.45
2022-08-31T14:50:23.579Z,2.05
2022-08-31T14:53:25.957Z,3.50
2022-08-31T14:56:33.348Z,2.42
2022-08-31T14:59:36.326Z,1.77
2022-08-31T15:02:39.061Z,2.75
2022-08-31T15:05:42.425Z,2.30
2022-08-31T15:08:44.582Z,2.33
2022-08-31T15:11:47.012Z,2.58
2022-08-31T15:14:49.895Z,2.58
2022-08-31T15:17:52.133Z,2.60
2022-08-31T15:20:56.071Z,2.45
2022-08-31T15:23:58.478Z,2.40
2022-08-31T15:27:01.594Z,2.25
2022-08-31T15:30:07.935Z,2.35
2022-08-31T15:33:11.274Z,3.00
2022-08-31T15:36:15.582Z,3.30
2022-08-31T15:39:20.340Z,3.03
2022-08-31T15:42:23.810Z,2.15
2022-08-31T15:45:30.040Z,2.20
2022-08-31T15:48:47.484Z,2.20
2022-08-31T15:51:51.865Z,2.70
2022-08-31T15:54:54.735Z,2.25
2022-08-31T15:57:59.436Z,2.30
2022-08-31T16:01:02.054Z,3.17
2022-08-31T16:04:08.328Z,3.13
2022-08-31T16:07:11.890Z,28.27
2022-08-31T16:10:19.826Z,4.20
2022-08-31T16:13:22.591Z,2.38
2022-08-31T16:16:30.951Z,5.97
2022-08-31T16:19:36.494Z,10.23
2022-08-31T16:22:39.675Z,4.43
2022-08-31T16:25:48.561Z,5.90
2022-08-31T16:28:51.202Z,5.40
2022-08-31T16:31:54.517Z,13.13
2022-08-31T16:34:56.986Z,4.40
2022-08-31T16:38:00.566Z,3.25
2022-08-31T16:41:04.945Z,3.13
2022-08-31T16:44:19.467Z,3.35
2022-08-31T16:47:21.994Z,3.85
2022-08-31T16:50:24.218Z,3.72
2022-08-31T16:53:26.353Z,3.67
2022-08-31T16:56:32.778Z,3.75
2022-08-31T16:59:36.543Z,3.35
2022-08-31T17:02:38.670Z,4.90
2022-08-31T17:05:43.022Z,4.88
2022-08-31T17:08:46.197Z,3.80
2022-08-31T17:11:56.828Z,4.30
2022-08-31T17:15:00.530Z,4.15
2022-08-31T17:18:02.587Z,3.88
2022-08-31T17:21:04.728Z,4.95
2022-08-31T17:24:06.821Z,4.00
2022-08-31T17:27:17.282Z,5.10
2022-08-31T17:30:19.494Z,5.10
2022-08-31T17:33:23.381Z,4.32
2022-08-31T17:36:37.315Z,3.70
2022-08-31T17:39:42.412Z,4.22
2022-08-31T17:42:44.789Z,4.25
2022-08-31T17:45:46.943Z,4.50
2022-08-31T17:48:49.423Z,4.80
2022-08-31T17:51:54.120Z,5.63
2022-08-31T17:54:56.646Z,4.93
2022-08-31T17:57:58.971Z,5.13
2022-08-31T18:01:01.372Z,6.03
2022-08-31T18:04:05.142Z,5.82
2022-08-31T18:07:09.270Z,4.90
2022-08-31T18:10:12.744Z,4.97
2022-08-31T18:13:15.011Z,4.80
2022-08-31T18:16:18.103Z,4.18
2022-08-31T18:19:25.573Z,4.28
2022-08-31T18:22:30.331Z,4.00
2022-08-31T18:25:36.979Z,4.82
2022-08-31T18:28:39.326Z,4.35
2022-08-31T18:31:44.196Z,3.80
2022-08-31T18:34:47.519Z,3.97
2022-08-31T18:37:49.792Z,3.35
2022-08-31T18:41:10.414Z,4.22
2022-08-31T18:44:32.242Z,5.88
2022-08-31T18:47:34.345Z,3.90
2022-08-31T18:50:37.257Z,4.55
2022-08-31T18:53:39.539Z,4.53
2022-08-31T18:56:42.187Z,3.92
2022-08-31T18:59:44.895Z,4.68
2022-08-31T19:02:47.128Z,4.70
2022-08-31T19:05:49.502Z,4.30
2022-08-31T19:08:52.646Z,4.18
2022-08-31T19:11:55.991Z,4.00
2022-08-31T19:14:59.327Z,5.00
2022-08-31T19:18:01.448Z,3.72
2022-08-31T19:21:33.476Z,3.90
2022-08-31T19:24:36.058Z,4.05
2022-08-31T19:27:39.349Z,4.10
2022-08-31T19:30:47.771Z,3.47
2022-08-31T19:37:00.986Z,3.50
2022-08-31T19:40:05.630Z,3.55
2022-08-31T19:46:32.990Z,3.33
2022-08-31T19:49:35.393Z,3.55
2022-08-31T19:52:37.654Z,3.90
2022-08-31T19:55:50.605Z,3.17
2022-08-31T19:58:56.599Z,3.45
2022-08-31T20:01:59.629Z,3.50
2022-08-31T20:05:06.690Z,3.67
2022-08-31T20:08:10.134Z,4.07
2022-08-31T20:11:17.045Z,3.38
2022-08-31T20:14:23.995Z,3.92
2022-08-31T20:17:30.244Z,3.58
2022-08-31T20:20:36.290Z,3.83
2022-08-31T20:23:38.898Z,4.43
2022-08-31T20:26:51.949Z,3.45
2022-08-31T20:29:54.419Z,3.33
2022-08-31T20:32:56.590Z,3.70
2022-08-31T20:35:58.858Z,4.38
2022-08-31T20:39:07.940Z,3.88
2022-08-31T20:42:10.157Z,3.90
2022-08-31T20:45:12.284Z,3.83
2022-08-31T20:48:33.319Z,4.28
2022-08-31T20:51:40.396Z,3.50
2022-08-31T20:54:43.947Z,3.93
2022-08-31T20:57:47.071Z,3.55
2022-08-31T21:00:51.795Z,4.53
2022-08-31T21:03:53.967Z,3.65
2022-08-31T21:06:58.028Z,4.03
2022-08-31T21:10:00.046Z,4.60
2022-08-31T21:13:02.380Z,4.00
2022-08-31T21:16:04.689Z,3.92
2022-08-31T21:19:13.825Z,3.65
2022-08-31T21:22:17.322Z,4.30
2022-08-31T21:25:19.547Z,3.72
2022-08-31T21:28:22.030Z,4.20
2022-08-31T21:31:28.949Z,4.50
2022-08-31T21:34:32.154Z,3.55
2022-08-31T21:37:34.277Z,4.40
2022-08-31T21:40:37.179Z,3.58
2022-08-31T21:43:40.267Z,4.18
2022-08-31T21:46:46.971Z,3.47
2022-08-31T21:49:53.575Z,4.20
2022-08-31T21:53:00.099Z,3.72
2022-08-31T21:56:04.018Z,3.20
2022-08-31T21:59:06.574Z,3.63
2022-08-31T22:02:11.497Z,3.88
2022-08-31T22:05:14.027Z,3.50
2022-08-31T22:08:16.117Z,3.97
2022-08-31T22:11:20.507Z,4.53
2022-08-31T22:14:26.618Z,4.32
2022-08-31T22:17:48.331Z,3.67
2022-08-31T22:20:51.574Z,4.05
2022-08-31T22:23:59.938Z,3.95
2022-08-31T22:27:06.149Z,4.53
2022-08-31T22:30:09.056Z,3.67
2022-08-31T22:33:11.103Z,4.03
2022-08-31T22:36:25.795Z,3.53
2022-08-31T22:39:33.839Z,3.67
2022-08-31T22:42:35.983Z,3.10
2022-08-31T22:45:48.504Z,3.40
2022-08-31T22:48:50.979Z,3.53
2022-08-31T22:51:54.519Z,3.45
2022-08-31T22:54:56.833Z,2.63
2022-08-31T22:57:58.943Z,2.80
2022-08-31T23:01:00.968Z,3.25
2022-08-31T23:04:08.551Z,2.83
2022-08-31T23:07:16.583Z,2.97
2022-08-31T23:10:20.052Z,3.20
2022-08-31T23:13:41.955Z,2.53
2022-08-31T23:16:46.938Z,2.42
2022-08-31T23:19:52.302Z,2.35
2022-08-31T23:22:55.440Z,3.10
2022-08-31T23:25:57.680Z,2.63
2022-08-31T23:29:05.506Z,3.25
2022-08-31T23:32:13.502Z,2.92
2022-08-31T23:35:17.955Z,2.95
2022-08-31T23:38:20.280Z,2.33
2022-08-31T23:41:25.911Z,2.35
2022-08-31T23:44:29.083Z,2.05
2022-08-31T23:47:31.868Z,2.67
2022-08-31T23:50:34.600Z,2.97
2022-08-31T23:53:38.276Z,2.67
2022-08-31T23:56:42.702Z,2.53
2022-08-31T23:59:52.262Z,2.72
